Time;durP1;ratioP1;P1;durP2;ratioP2;P2;SDS_P1;SDS_P2;PMS_P1;PMS_P2;Temp;Humidity;BMP_temperature;BMP_pressure;BME280_temperature;BME280_humidity;BME280_pressure;Samples;Min_cycle;Max_cycle;Signal;HPM_P1;HPM_P2
2022/06/08 00:00:56;;;;;;;3.83;3.53;;;;;;;-142.25;100.00;58004.16;5013140;28;20034;-63
2022/06/08 00:03:45;;;;;;;3.10;2.90;;;;;;;-142.25;100.00;58004.16;5008450;28;20026;-63
2022/06/08 00:06:14;;;;;;;3.28;3.08;;;;;;;-142.25;100.00;58004.16;5014391;28;20030;-64
2022/06/08 00:08:40;;;;;;;3.17;2.95;;;;;;;-142.25;100.00;58004.16;5014040;28;20307;-63
2022/06/08 00:11:05;;;;;;;3.50;3.25;;;;;;;-142.25;100.00;58004.16;5009921;28;20037;-62
2022/06/08 00:13:31;;;;;;;3.55;3.25;;;;;;;-142.25;100.00;58004.16;5008677;28;20033;-63
2022/06/08 00:15:57;;;;;;;3.08;2.88;;;;;;;-142.25;100.00;58004.16;4999986;28;20069;-63
2022/06/08 00:18:23;;;;;;;4.68;3.78;;;;;;;-142.25;100.00;58004.16;5011041;28;20036;-63
2022/06/08 00:20:48;;;;;;;3.80;3.53;;;;;;;-142.25;100.00;58004.16;5008528;28;20155;-62
2022/06/08 00:23:14;;;;;;;3.78;3.47;;;;;;;-142.25;100.00;58004.16;5010131;28;20025;-62
2022/06/08 00:25:40;;;;;;;3.80;3.60;;;;;;;-142.25;100.00;58004.16;5013222;28;20096;-64
2022/06/08 00:28:05;;;;;;;3.90;3.63;;;;;;;-142.25;100.00;58004.16;5009153;28;20034;-59
2022/06/08 00:30:31;;;;;;;4.57;4.18;;;;;;;-142.25;100.00;58004.16;5008531;28;20505;-60
2022/06/08 00:32:56;;;;;;;3.88;3.63;;;;;;;-142.25;100.00;58004.16;5007842;28;20040;-60
2022/06/08 00:35:22;;;;;;;4.65;4.22;;;;;;;-142.25;100.00;58004.16;5013508;28;20046;-61
2022/06/08 00:37:47;;;;;;;4.95;4.47;;;;;;;-142.25;100.00;58004.16;5011854;28;20041;-60
2022/06/08 00:40:18;;;;;;;5.05;4.65;;;;;;;-142.25;100.00;58004.16;5008201;28;20088;-60
2022/06/08 00:42:43;;;;;;;5.85;5.10;;;;;;;-142.25;100.00;58004.16;5010308;28;20185;-61
2022/06/08 00:45:19;;;;;;;7.20;4.93;;;;;;;-142.25;100.00;58004.16;5009754;28;20455;-61
2022/06/08 00:47:50;;;;;;;5.57;5.10;;;;;;;-142.25;100.00;58004.16;5008146;28;20026;-61
2022/06/08 00:50:21;;;;;;;4.65;4.22;;;;;;;-142.25;100.00;58004.16;5008222;28;20235;-63
2022/06/08 00:52:48;;;;;;;4.90;4.50;;;;;;;-142.25;100.00;58004.16;5012594;28;20033;-59
2022/06/08 00:55:16;;;;;;;5.30;4.80;;;;;;;-142.25;100.00;58004.16;5011593;28;20538;-61
2022/06/08 00:57:53;;;;;;;5.65;5.25;;;;;;;-142.25;100.00;58004.16;5009683;28;20072;-61
2022/06/08 01:00:23;;;;;;;5.40;5.00;;;;;;;-142.25;100.00;58004.16;5009097;28;20037;-60
2022/06/08 01:02:48;;;;;;;5.35;4.85;;;;;;;-142.25;100.00;58004.16;5009997;28;20026;-61
2022/06/08 01:05:51;;;;;;;4.90;4.50;;;;;;;-142.25;100.00;58004.16;5012601;28;20099;-59
2022/06/08 01:08:36;;;;;;;5.40;5.00;;;;;;;-142.25;100.00;58004.16;5008658;28;20029;-60
2022/06/08 01:11:06;;;;;;;6.78;5.20;;;;;;;-142.25;100.00;58004.16;5010831;28;20049;-61
2022/06/08 01:13:35;;;;;;;5.00;4.55;;;;;;;-142.25;100.00;58004.16;5011549;28;20045;-59
2022/06/08 01:16:08;;;;;;;5.30;4.90;;;;;;;-142.25;100.00;58004.16;5007283;28;20555;-60
2022/06/08 01:18:34;;;;;;;5.97;5.38;;;;;;;-142.25;100.00;58004.16;5008181;28;20033;-60
2022/06/08 01:21:18;;;;;;;5.50;5.00;;;;;;;-142.25;100.00;58004.16;5012344;28;20037;-58
2022/06/08 01:23:45;;;;;;;5.35;4.90;;;;;;;-142.25;100.00;58004.16;5011575;28;20029;-59
2022/06/08 01:26:19;;;;;;;5.78;5.30;;;;;;;-142.25;100.00;58004.16;5010025;28;20029;-61
2022/06/08 01:29:00;;;;;;;7.05;5.38;;;;;;;-142.25;100.00;58004.16;5008204;28;20037;-61
2022/06/08 01:31:51;;;;;;;6.30;5.70;;;;;;;-142.25;100.00;58004.16;5012275;28;20041;-61
2022/06/08 01:34:40;;;;;;;6.32;4.88;;;;;;;-142.25;100.00;58004.16;4922907;29;20039;-59
2022/06/08 01:37:10;;;;;;;4.97;4.57;;;;;;;-142.25;100.00;58004.16;4920048;29;20453;-61
2022/06/08 01:40:18;;;;;;;4.88;4.47;;;;;;;-142.25;100.00;58004.16;4923608;29;20040;-61
2022/06/08 01:43:08;;;;;;;4.50;4.20;;;;;;;-142.25;100.00;58004.16;4887399;29;20841;-61
2022/06/08 01:45:33;;;;;;;5.38;4.88;;;;;;;-142.25;100.00;58004.16;4884853;29;20146;-61
2022/06/08 01:48:12;;;;;;;5.30;4.90;;;;;;;-142.25;100.00;58004.16;4885526;29;20059;-60
2022/06/08 01:51:23;;;;;;;5.13;4.72;;;;;;;-142.25;100.00;58004.16;4889351;29;20135;-60
2022/06/08 01:54:21;;;;;;;4.30;4.00;;;;;;;-142.25;100.00;58004.16;4860969;29;20049;-60
2022/06/08 01:57:03;;;;;;;4.72;4.38;;;;;;;-142.25;100.00;58004.16;4841151;29;20401;-59
2022/06/08 01:59:31;;;;;;;4.57;4.10;;;;;;;-142.25;100.00;58004.16;4841246;29;20053;-59
2022/06/08 02:02:29;;;;;;;5.13;3.95;;;;;;;-142.25;100.00;58004.16;4841579;29;20058;-61
2022/06/08 02:05:05;;;;;;;5.00;4.60;;;;;;;-142.25;100.00;58004.16;4839596;29;20045;-61
2022/06/08 02:07:41;;;;;;;5.38;4.90;;;;;;;-142.25;100.00;58004.16;4840500;29;20069;-61
2022/06/08 02:10:09;;;;;;;5.38;4.90;;;;;;;-142.25;100.00;58004.16;4843167;29;20132;-60
2022/06/08 02:12:41;;;;;;;5.00;4.60;;;;;;;-142.25;100.00;58004.16;4863617;29;20049;-60
2022/06/08 02:15:18;;;;;;;5.70;4.50;;;;;;;-142.25;100.00;58004.16;4862752;29;20227;-60
2022/06/08 02:17:51;;;;;;;5.18;4.50;;;;;;;-142.25;100.00;58004.16;4873797;29;20171;-60
2022/06/08 02:20:31;;;;;;;5.88;5.07;;;;;;;-142.25;100.00;58004.16;4902773;29;20048;-58
2022/06/08 02:23:05;;;;;;;5.18;4.78;;;;;;;-142.25;100.00;58004.16;4904799;29;20032;-58
2022/06/08 02:25:36;;;;;;;5.72;5.15;;;;;;;-142.25;100.00;58004.16;4905283;29;20134;-58
2022/06/08 02:28:10;;;;;;;5.55;4.97;;;;;;;-142.25;100.00;58004.16;4904091;29;20112;-59
2022/06/08 02:30:47;;;;;;;5.90;5.40;;;;;;;-142.25;100.00;58004.16;4904840;29;20050;-60
2022/06/08 02:36:21;;;;;;;4.55;4.15;;;;;;;-142.25;100.00;58004.16;5012448;28;20497;-60
2022/06/08 02:39:22;;;;;;;5.53;5.03;;;;;;;-142.25;100.00;58004.16;5011046;28;20026;-61
2022/06/08 02:41:52;;;;;;;6.30;5.30;;;;;;;-142.25;100.00;58004.16;5011461;28;20140;-60
2022/06/08 02:44:23;;;;;;;5.82;5.43;;;;;;;-142.25;100.00;58004.16;5011576;28;20065;-59
2022/06/08 02:46:59;;;;;;;5.47;4.97;;;;;;;-142.25;100.00;58004.16;5011253;28;20109;-60
2022/06/08 02:49:24;;;;;;;5.55;4.63;;;;;;;-142.25;100.00;58004.16;5013362;28;20026;-62
2022/06/08 02:51:52;;;;;;;4.22;3.92;;;;;;;-142.25;100.00;58004.16;5011980;28;20605;-61
2022/06/08 02:54:23;;;;;;;4.57;4.20;;;;;;;-142.25;100.00;58004.16;5010789;28;20040;-60
2022/06/08 02:57:00;;;;;;;4.57;4.28;;;;;;;-142.25;100.00;58004.16;5008821;28;20026;-59
2022/06/08 02:59:38;;;;;;;5.35;4.85;;;;;;;-142.25;100.00;58004.16;5012295;28;20037;-59
2022/06/08 03:02:18;;;;;;;5.35;4.95;;;;;;;-142.25;100.00;58004.16;5010740;28;20040;-60
2022/06/08 03:05:30;;;;;;;5.30;4.90;;;;;;;-142.25;100.00;58004.16;5010957;28;20044;-59
2022/06/08 03:08:11;;;;;;;4.57;4.28;;;;;;;-142.25;100.00;58004.16;4965881;28;20038;-60
2022/06/08 03:10:41;;;;;;;5.45;5.05;;;;;;;-142.25;100.00;58004.16;4973814;28;20042;-60
2022/06/08 03:13:26;;;;;;;4.95;4.57;;;;;;;-142.25;100.00;58004.16;4974757;28;20058;-59
2022/06/08 03:15:58;;;;;;;5.57;5.18;;;;;;;-142.25;100.00;58004.16;4973723;28;20114;-59
2022/06/08 03:18:24;;;;;;;5.10;4.72;;;;;;;-142.25;100.00;58004.16;4974903;28;20038;-59
2022/06/08 03:20:50;;;;;;;5.00;4.50;;;;;;;-142.25;100.00;58004.16;4971530;28;20077;-58
2022/06/08 03:23:15;;;;;;;4.80;4.50;;;;;;;-142.25;100.00;58004.16;4978077;28;20798;-60
2022/06/08 03:25:41;;;;;;;5.50;5.10;;;;;;;-142.25;100.00;58004.16;4974047;28;20526;-60
2022/06/08 03:28:07;;;;;;;5.03;4.60;;;;;;;-142.25;100.00;58004.16;4972802;28;20034;-61
2022/06/08 03:30:32;;;;;;;6.00;5.22;;;;;;;-142.25;100.00;58004.16;4973673;28;20727;-60
2022/06/08 03:32:58;;;;;;;6.13;5.63;;;;;;;-142.25;100.00;58004.16;4973353;28;20038;-60
2022/06/08 03:35:23;;;;;;;4.88;4.47;;;;;;;-142.25;100.00;58004.16;4971095;28;20627;-60
2022/06/08 03:37:49;;;;;;;4.60;4.30;;;;;;;-142.25;100.00;58004.16;4972574;28;20508;-58
2022/06/08 03:40:15;;;;;;;5.15;4.70;;;;;;;-142.25;100.00;58004.16;4973040;28;20590;-60
2022/06/08 03:42:40;;;;;;;5.53;4.72;;;;;;;-142.25;100.00;58004.16;4971859;28;20042;-60
2022/06/08 03:45:07;;;;;;;5.30;4.90;;;;;;;-142.25;100.00;58004.16;4998364;28;20441;-60
2022/06/08 03:47:39;;;;;;;5.60;5.10;;;;;;;-142.25;100.00;58004.16;5009927;28;20049;-59
2022/06/08 03:50:09;;;;;;;5.18;4.68;;;;;;;-142.25;100.00;58004.16;5010091;28;20525;-60
2022/06/08 03:52:39;;;;;;;5.55;5.05;;;;;;;-142.25;100.00;58004.16;5012117;28;20033;-58
2022/06/08 03:55:07;;;;;;;4.75;4.35;;;;;;;-142.25;100.00;58004.16;5009168;28;20030;-60
2022/06/08 03:57:34;;;;;;;5.45;4.65;;;;;;;-142.25;100.00;58004.16;5010042;28;20033;-59
2022/06/08 04:00:00;;;;;;;5.22;4.82;;;;;;;-142.25;100.00;58004.16;5008921;28;20030;-59
2022/06/08 04:02:28;;;;;;;5.55;5.15;;;;;;;-142.25;100.00;58004.16;5010242;28;20030;-59
2022/06/08 04:04:53;;;;;;;4.75;4.45;;;;;;;-142.25;100.00;58004.16;5009824;28;20172;-59
2022/06/08 04:07:19;;;;;;;4.90;4.50;;;;;;;-142.25;100.00;58004.16;5010087;28;20037;-59
2022/06/08 04:09:45;;;;;;;4.45;4.15;;;;;;;-142.25;100.00;58004.16;5000312;28;20038;-59
2022/06/08 04:12:11;;;;;;;4.80;4.40;;;;;;;-142.25;100.00;58004.16;5009256;28;20125;-59
2022/06/08 04:14:37;;;;;;;8.55;4.72;;;;;;;-142.25;100.00;58004.16;4994241;28;20034;-59
2022/06/08 04:17:03;;;;;;;4.30;4.05;;;;;;;-142.25;100.00;58004.16;5010797;28;20025;-59
2022/06/08 04:19:29;;;;;;;8.43;4.63;;;;;;;-142.25;100.00;58004.16;5009323;28;20049;-59
2022/06/08 04:21:55;;;;;;;4.53;4.15;;;;;;;-142.25;100.00;58004.16;5009693;28;20149;-59
2022/06/08 04:24:22;;;;;;;4.30;4.00;;;;;;;-142.25;100.00;58004.16;5008054;28;20038;-62
2022/06/08 04:26:49;;;;;;;4.15;3.85;;;;;;;-142.25;100.00;58004.16;5009304;28;20057;-59
2022/06/08 04:29:14;;;;;;;4.93;4.53;;;;;;;-142.25;100.00;58004.16;5008166;28;20080;-59
2022/06/08 04:31:41;;;;;;;5.32;4.07;;;;;;;-142.25;100.00;58004.16;5009567;28;20561;-60
2022/06/08 04:34:09;;;;;;;4.53;4.00;;;;;;;-142.25;100.00;58004.16;5009430;28;20594;-58
2022/06/08 04:36:35;;;;;;;4.50;3.90;;;;;;;-142.25;100.00;58004.16;5007726;28;20061;-58
2022/06/08 04:39:02;;;;;;;5.07;4.65;;;;;;;-142.25;100.00;58004.16;4991273;28;20040;-57
2022/06/08 04:41:27;;;;;;;4.35;3.97;;;;;;;-142.25;100.00;58004.16;5007402;28;20034;-58
2022/06/08 04:43:54;;;;;;;4.75;4.30;;;;;;;-142.25;100.00;58004.16;5007131;28;20087;-59
2022/06/08 04:46:20;;;;;;;5.65;5.13;;;;;;;-142.25;100.00;58004.16;5008208;28;20121;-59
2022/06/08 04:48:46;;;;;;;5.68;5.20;;;;;;;-142.25;100.00;58004.16;5008111;28;20038;-59
2022/06/08 04:51:14;;;;;;;5.65;4.95;;;;;;;-142.25;100.00;58004.16;5008219;28;20041;-60
2022/06/08 04:53:42;;;;;;;5.55;5.05;;;;;;;-142.25;100.00;58004.16;5008661;28;20068;-60
2022/06/08 04:56:08;;;;;;;7.43;6.78;;;;;;;-142.25;100.00;58004.16;4999529;28;20048;-62
2022/06/08 04:58:34;;;;;;;6.57;6.07;;;;;;;-142.25;100.00;58004.16;5011255;28;20038;-62
2022/06/08 05:01:00;;;;;;;6.40;5.80;;;;;;;-142.25;100.00;58004.16;5009738;28;20451;-62
2022/06/08 05:03:26;;;;;;;6.57;6.00;;;;;;;-142.25;100.00;58004.16;5009288;28;20045;-63
2022/06/08 05:05:52;;;;;;;7.60;6.43;;;;;;;-142.25;100.00;58004.16;5011732;28;20049;-60
2022/06/08 05:08:18;;;;;;;7.22;6.53;;;;;;;-142.25;100.00;58004.16;5007695;28;20030;-60
2022/06/08 05:10:45;;;;;;;6.75;6.15;;;;;;;-142.25;100.00;58004.16;5008315;28;20044;-60
2022/06/08 05:13:12;;;;;;;9.25;7.05;;;;;;;-142.25;100.00;58004.16;5008491;28;20533;-62
2022/06/08 05:15:39;;;;;;;7.25;6.47;;;;;;;-142.25;100.00;58004.16;5011168;28;20092;-60
2022/06/08 05:18:06;;;;;;;8.32;7.53;;;;;;;-142.25;100.00;58004.16;5013197;28;20037;-60
2022/06/08 05:20:32;;;;;;;10.15;7.60;;;;;;;-142.25;100.00;58004.16;5007482;28;20088;-60
2022/06/08 05:22:59;;;;;;;7.78;7.05;;;;;;;-142.25;100.00;58004.16;5007619;28;20041;-60
2022/06/08 05:25:33;;;;;;;8.10;7.00;;;;;;;-142.25;100.00;58004.16;5008908;28;20026;-60
2022/06/08 05:28:00;;;;;;;8.35;7.55;;;;;;;-142.25;100.00;58004.16;5014842;28;20475;-60
2022/06/08 05:30:26;;;;;;;8.73;7.82;;;;;;;-142.25;100.00;58004.16;5007799;28;20169;-61
2022/06/08 05:32:52;;;;;;;7.85;7.05;;;;;;;-142.25;100.00;58004.16;5007760;28;20280;-61
2022/06/08 05:35:18;;;;;;;8.18;7.47;;;;;;;-142.25;100.00;58004.16;5008405;28;20053;-60
2022/06/08 05:37:43;;;;;;;11.57;8.27;;;;;;;-142.25;100.00;58004.16;5009990;28;20040;-61
2022/06/08 05:40:10;;;;;;;8.55;7.65;;;;;;;-142.25;100.00;58004.16;5007060;28;20092;-61
2022/06/08 05:42:36;;;;;;;9.93;7.43;;;;;;;-142.25;100.00;58004.16;4991215;28;20145;-60
2022/06/08 05:45:03;;;;;;;10.07;8.35;;;;;;;-142.25;100.00;58004.16;5006674;28;20476;-60
2022/06/08 05:47:29;;;;;;;9.70;8.60;;;;;;;-142.25;100.00;58004.16;5008831;28;20060;-60
2022/06/08 05:49:54;;;;;;;10.27;8.15;;;;;;;-142.25;100.00;58004.16;5008030;28;20026;-60
2022/06/08 05:52:20;;;;;;;15.02;9.52;;;;;;;-142.25;100.00;58004.16;5008135;28;20124;-61
2022/06/08 05:54:45;;;;;;;12.05;8.95;;;;;;;-142.25;100.00;58004.16;5007997;28;20033;-60
2022/06/08 05:57:11;;;;;;;9.98;8.60;;;;;;;-142.25;100.00;58004.16;5012318;28;20128;-60
2022/06/08 05:59:36;;;;;;;10.32;9.00;;;;;;;-142.25;100.00;58004.16;5012711;28;20053;-61
2022/06/08 06:02:04;;;;;;;10.13;9.18;;;;;;;-142.25;100.00;58004.16;4997845;28;20087;-60
2022/06/08 06:04:29;;;;;;;10.50;9.32;;;;;;;-142.25;100.00;58004.16;5014229;28;20041;-60
2022/06/08 06:06:55;;;;;;;9.65;8.70;;;;;;;-142.25;100.00;58004.16;5012972;28;20037;-60
2022/06/08 06:09:21;;;;;;;9.15;8.20;;;;;;;-142.25;100.00;58004.16;5012284;28;20482;-61
2022/06/08 06:11:47;;;;;;;9.50;8.50;;;;;;;-142.25;100.00;58004.16;5014839;28;20053;-61
2022/06/08 06:14:13;;;;;;;10.93;9.80;;;;;;;-142.25;100.00;58004.16;4995824;28;20018;-60
2022/06/08 06:16:38;;;;;;;8.48;7.55;;;;;;;-142.25;100.00;58004.16;5012863;28;20459;-60
2022/06/08 06:19:04;;;;;;;9.52;8.65;;;;;;;-142.25;100.00;58004.16;4997269;28;20037;-61
2022/06/08 06:21:30;;;;;;;9.30;8.40;;;;;;;-142.25;100.00;58004.16;5015993;28;20065;-61
2022/06/08 06:23:58;;;;;;;8.80;7.85;;;;;;;-142.25;100.00;58004.16;5012325;28;20089;-60
2022/06/08 06:26:24;;;;;;;8.45;7.65;;;;;;;-142.25;100.00;58004.16;5010374;28;20038;-60
2022/06/08 06:28:49;;;;;;;9.88;8.95;;;;;;;-142.25;100.00;58004.16;5010495;28;20459;-59
2022/06/08 06:31:22;;;;;;;12.10;8.35;;;;;;;-142.25;100.00;58004.16;5007062;28;20096;-60
2022/06/08 06:33:48;;;;;;;9.30;8.50;;;;;;;-142.25;100.00;58004.16;5016336;28;20437;-61
2022/06/08 06:36:14;;;;;;;8.45;7.65;;;;;;;-142.25;100.00;58004.16;5011008;28;20621;-61
2022/06/08 06:38:39;;;;;;;8.68;7.22;;;;;;;-142.25;100.00;58004.16;5009190;28;20107;-61
2022/06/08 06:41:05;;;;;;;8.00;7.40;;;;;;;-142.25;100.00;58004.16;5011997;28;20080;-61
2022/06/08 06:43:32;;;;;;;7.53;6.82;;;;;;;-142.25;100.00;58004.16;5011018;28;20030;-61
2022/06/08 06:45:57;;;;;;;7.35;6.75;;;;;;;-142.25;100.00;58004.16;5011355;28;20034;-61
2022/06/08 06:48:23;;;;;;;6.95;6.35;;;;;;;-142.25;100.00;58004.16;5011263;28;20476;-60
2022/06/08 06:50:49;;;;;;;9.57;6.75;;;;;;;-142.25;100.00;58004.16;5011490;28;20041;-61
2022/06/08 06:53:14;;;;;;;6.32;5.82;;;;;;;-142.25;100.00;58004.16;5011007;28;20059;-60
2022/06/08 06:55:40;;;;;;;7.07;6.57;;;;;;;-142.25;100.00;58004.16;5010553;28;20118;-60
2022/06/08 06:58:06;;;;;;;7.22;6.63;;;;;;;-142.25;100.00;58004.16;5009438;28;20072;-60
2022/06/08 07:00:33;;;;;;;5.78;5.28;;;;;;;-142.25;100.00;58004.16;5009335;28;20059;-60
2022/06/08 07:02:59;;;;;;;5.65;5.25;;;;;;;-142.25;100.00;58004.16;5013058;28;20050;-60
2022/06/08 07:05:31;;;;;;;5.28;4.75;;;;;;;-142.25;100.00;58004.16;4993947;28;20549;-60
2022/06/08 07:07:56;;;;;;;6.60;5.38;;;;;;;-142.25;100.00;58004.16;5011315;28;20124;-60
2022/06/08 07:10:21;;;;;;;5.07;4.65;;;;;;;-142.25;100.00;58004.16;5009934;28;20764;-61
2022/06/08 07:12:47;;;;;;;4.88;4.30;;;;;;;-142.25;100.00;58004.16;5011301;28;20045;-60
2022/06/08 07:15:16;;;;;;;4.13;3.75;;;;;;;-142.25;100.00;58004.16;5011138;28;20109;-60
2022/06/08 07:17:42;;;;;;;4.00;3.70;;;;;;;-142.25;100.00;58004.16;5013908;28;20033;-60
2022/06/08 07:20:08;;;;;;;3.65;3.35;;;;;;;-142.25;100.00;58004.16;5024875;28;20460;-61
2022/06/08 07:22:34;;;;;;;5.60;4.03;;;;;;;-142.25;100.00;58004.16;5001351;28;20037;-60
2022/06/08 07:24:59;;;;;;;3.85;2.97;;;;;;;-142.25;100.00;58004.16;5010219;28;20074;-61
2022/06/08 07:27:25;;;;;;;3.70;3.40;;;;;;;-142.25;100.00;58004.16;5009470;28;20451;-61
2022/06/08 07:29:51;;;;;;;3.92;3.55;;;;;;;-142.25;100.00;58004.16;5010627;28;20041;-61
2022/06/08 07:32:17;;;;;;;6.38;4.30;;;;;;;-142.25;100.00;58004.16;5010315;28;20041;-61
2022/06/08 07:34:42;;;;;;;5.70;3.80;;;;;;;-142.25;100.00;58004.16;5008626;28;20089;-60
2022/06/08 07:37:08;;;;;;;4.60;4.00;;;;;;;-142.25;100.00;58004.16;5007856;28;20517;-60
2022/06/08 07:39:35;;;;;;;5.22;3.97;;;;;;;-142.25;100.00;58004.16;5011145;28;20096;-61
2022/06/08 07:42:01;;;;;;;3.65;3.08;;;;;;;-142.25;100.00;58004.16;5009395;28;20040;-60
2022/06/08 07:44:26;;;;;;;3.83;3.53;;;;;;;-142.25;100.00;58004.16;5009896;28;20041;-61
2022/06/08 07:46:52;;;;;;;3.22;2.97;;;;;;;-142.25;100.00;58004.16;4990760;28;20033;-61
2022/06/08 07:52:14;;;;;;;3.63;3.33;;;;;;;-142.25;100.00;58004.16;5010971;28;20092;-61
2022/06/08 07:54:41;;;;;;;3.50;3.20;;;;;;;-142.25;100.00;58004.16;5010067;28;20038;-61
2022/06/08 07:57:08;;;;;;;3.78;3.25;;;;;;;-142.25;100.00;58004.16;5014480;28;20116;-61
2022/06/08 07:59:36;;;;;;;4.07;3.67;;;;;;;-142.25;100.00;58004.16;5012156;28;20030;-61
2022/06/08 08:02:03;;;;;;;4.65;3.05;;;;;;;-142.25;100.00;58004.16;5010161;28;20073;-63
2022/06/08 08:04:28;;;;;;;3.78;3.45;;;;;;;-142.25;100.00;58004.16;5008215;28;20656;-62
2022/06/08 08:06:54;;;;;;;3.33;3.10;;;;;;;-142.25;100.00;58004.16;4991571;28;20503;-62
2022/06/08 08:09:22;;;;;;;3.30;3.00;;;;;;;-142.25;100.00;58004.16;5002077;28;20415;-62
2022/06/08 08:11:50;;;;;;;8.52;3.30;;;;;;;-142.25;100.00;58004.16;5008745;28;20443;-62
2022/06/08 08:14:21;;;;;;;3.38;3.17;;;;;;;-142.25;100.00;58004.16;5009317;28;20532;-62
2022/06/08 08:16:46;;;;;;;3.80;3.50;;;;;;;-142.25;100.00;58004.16;4990102;28;20034;-62
2022/06/08 08:19:17;;;;;;;3.53;3.20;;;;;;;-142.25;100.00;58004.16;5007127;28;20053;-62
2022/06/08 08:21:44;;;;;;;3.38;3.17;;;;;;;-142.25;100.00;58004.16;4989301;28;20455;-62
2022/06/08 08:24:09;;;;;;;2.97;2.75;;;;;;;-142.25;100.00;58004.16;5007690;28;20072;-61
2022/06/08 08:26:35;;;;;;;3.65;3.35;;;;;;;-142.25;100.00;58004.16;5009220;28;20056;-63
2022/06/08 08:29:01;;;;;;;3.40;3.10;;;;;;;-142.25;100.00;58004.16;5007743;28;20038;-60
2022/06/08 08:31:27;;;;;;;3.80;3.50;;;;;;;-142.25;100.00;58004.16;4990160;28;20424;-63
2022/06/08 08:33:53;;;;;;;3.05;2.85;;;;;;;-142.25;100.00;58004.16;5010152;28;20262;-63
2022/06/08 08:36:18;;;;;;;3.75;3.30;;;;;;;-142.25;100.00;58004.16;5008491;28;20491;-61
2022/06/08 08:38:45;;;;;;;3.63;3.33;;;;;;;-142.25;100.00;58004.16;5008944;28;20522;-61
2022/06/08 08:44:01;;;;;;;4.20;3.33;;;;;;;-142.25;100.00;58004.16;5009691;28;20040;-62
2022/06/08 08:46:53;;;;;;;3.58;3.30;;;;;;;-142.25;100.00;58004.16;5007661;28;20033;-63
2022/06/08 08:49:21;;;;;;;4.57;3.75;;;;;;;-142.25;100.00;58004.16;5009178;28;20038;-62
2022/06/08 08:52:13;;;;;;;3.50;3.20;;;;;;;-142.25;100.00;58004.16;5008436;28;20041;-62
2022/06/08 08:54:53;;;;;;;5.30;3.38;;;;;;;-142.25;100.00;58004.16;4984236;28;20088;-62
2022/06/08 08:57:28;;;;;;;3.70;3.10;;;;;;;-142.25;100.00;58004.16;5008868;28;20443;-61
2022/06/08 08:59:55;;;;;;;3.65;3.30;;;;;;;-142.25;100.00;58004.16;5007491;28;20494;-60
2022/06/08 09:05:21;;;;;;;3.03;2.80;;;;;;;-142.25;100.00;58004.16;5009812;28;20123;-60
2022/06/08 09:07:47;;;;;;;3.47;3.22;;;;;;;-142.25;100.00;58004.16;5009204;28;20470;-60
2022/06/08 09:10:18;;;;;;;3.22;3.03;;;;;;;-142.25;100.00;58004.16;5007862;28;20041;-63
2022/06/08 09:12:44;;;;;;;2.90;2.70;;;;;;;-142.25;100.00;58004.16;5007911;28;20069;-60
2022/06/08 09:15:12;;;;;;;4.55;3.13;;;;;;;-142.25;100.00;58004.16;5011235;28;20040;-59
2022/06/08 09:17:41;;;;;;;3.45;3.15;;;;;;;-142.25;100.00;58004.16;5008691;28;20104;-59
2022/06/08 09:20:15;;;;;;;2.60;2.40;;;;;;;-142.25;100.00;58004.16;5008989;28;20455;-61
2022/06/08 09:22:48;;;;;;;3.70;3.40;;;;;;;-142.25;100.00;58004.16;5008248;28;20061;-59
2022/06/08 09:25:34;;;;;;;3.67;3.47;;;;;;;-142.25;100.00;58004.16;5012972;28;20036;-60
2022/06/08 09:28:01;;;;;;;3.72;3.03;;;;;;;-142.25;100.00;58004.16;5007868;28;20091;-59
2022/06/08 09:30:45;;;;;;;3.13;2.85;;;;;;;-142.25;100.00;58004.16;5007193;28;20045;-60
2022/06/08 09:33:25;;;;;;;3.50;3.20;;;;;;;-142.25;100.00;58004.16;5009875;28;20033;-59
2022/06/08 09:35:55;;;;;;;3.60;3.00;;;;;;;-142.25;100.00;58004.16;5011928;28;20054;-60
2022/06/08 09:38:23;;;;;;;3.80;3.53;;;;;;;-142.25;100.00;58004.16;5008264;28;20034;-59
2022/06/08 09:41:07;;;;;;;4.22;3.75;;;;;;;-142.25;100.00;58004.16;5007292;28;20052;-58
2022/06/08 09:43:52;;;;;;;3.83;3.53;;;;;;;-142.25;100.00;58004.16;4998852;28;20489;-58
2022/06/08 09:52:37;;;;;;;3.63;3.42;;;;;;;-142.25;100.00;58004.16;5012477;28;20056;-59
2022/06/08 09:55:19;;;;;;;3.55;3.22;;;;;;;-142.25;100.00;58004.16;5010461;28;20061;-59
2022/06/08 09:58:33;;;;;;;6.68;3.13;;;;;;;-142.25;100.00;58004.16;4993816;28;20030;-59
2022/06/08 10:01:22;;;;;;;3.53;3.33;;;;;;;-142.25;100.00;58004.16;4956797;28;20133;-59
2022/06/08 10:04:06;;;;;;;3.78;3.58;;;;;;;-142.25;100.00;58004.16;4935407;28;20537;-59
2022/06/08 10:06:43;;;;;;;4.00;3.50;;;;;;;-142.25;100.00;58004.16;4943723;28;20049;-59
2022/06/08 10:09:33;;;;;;;3.88;3.55;;;;;;;-142.25;100.00;58004.16;4956089;28;20068;-59
2022/06/08 10:12:22;;;;;;;6.35;3.25;;;;;;;-142.25;100.00;58004.16;4956382;28;20096;-59
2022/06/08 10:14:55;;;;;;;3.65;3.35;;;;;;;-142.25;100.00;58004.16;4955873;28;20475;-59
2022/06/08 10:17:30;;;;;;;3.45;3.25;;;;;;;-142.25;100.00;58004.16;4956610;28;20062;-59
2022/06/08 10:20:12;;;;;;;4.30;3.60;;;;;;;-142.25;100.00;58004.16;4956379;28;20114;-62
2022/06/08 10:22:44;;;;;;;3.47;3.20;;;;;;;-142.25;100.00;58004.16;4956741;28;20121;-59
2022/06/08 10:25:13;;;;;;;4.22;3.58;;;;;;;-142.25;100.00;58004.16;4957945;28;20049;-59
2022/06/08 10:27:53;;;;;;;3.45;3.25;;;;;;;-142.25;100.00;58004.16;4956535;28;20436;-60
2022/06/08 10:30:30;;;;;;;5.05;3.28;;;;;;;-142.25;100.00;58004.16;4956340;28;20361;-60
2022/06/08 10:32:59;;;;;;;3.47;3.25;;;;;;;-142.25;100.00;58004.16;4955547;28;20097;-62
2022/06/08 10:35:41;;;;;;;3.50;3.20;;;;;;;-142.25;100.00;58004.16;4956113;28;20055;-59
2022/06/08 10:38:18;;;;;;;3.95;3.33;;;;;;;-142.25;100.00;58004.16;5002616;28;20088;-58
2022/06/08 10:43:59;;;;;;;6.43;5.22;;;;;;;-142.25;100.00;58004.16;5011298;28;20549;-61
2022/06/08 10:46:47;;;;;;;4.45;4.05;;;;;;;-142.25;100.00;58004.16;5010355;28;20075;-61
2022/06/08 10:49:36;;;;;;;3.90;3.60;;;;;;;-142.25;100.00;58004.16;5012110;28;20037;-61
2022/06/08 10:52:36;;;;;;;3.45;3.15;;;;;;;-142.25;100.00;58004.16;5011943;28;21169;-64
2022/06/08 10:55:17;;;;;;;4.95;2.80;;;;;;;-142.25;100.00;58004.16;4982732;28;20521;-64
2022/06/08 10:57:51;;;;;;;3.58;2.92;;;;;;;-142.25;100.00;58004.16;5010076;28;20042;-61
2022/06/08 11:00:20;;;;;;;4.95;3.10;;;;;;;-142.25;100.00;58004.16;5011083;28;20108;-66
2022/06/08 11:03:01;;;;;;;3.63;3.35;;;;;;;-142.25;100.00;58004.16;5010463;28;20072;-65
2022/06/08 11:05:40;;;;;;;4.38;3.88;;;;;;;-142.25;100.00;58004.16;5009757;28;20406;-62
2022/06/08 11:08:12;;;;;;;3.78;3.58;;;;;;;-142.25;100.00;58004.16;5010055;28;20067;-62
2022/06/08 11:10:44;;;;;;;3.90;3.60;;;;;;;-142.25;100.00;58004.16;5010018;28;20049;-62
2022/06/08 11:13:24;;;;;;;4.13;3.70;;;;;;;-142.25;100.00;58004.16;5010588;28;20131;-61
2022/06/08 11:15:58;;;;;;;4.13;3.72;;;;;;;-142.25;100.00;58004.16;5010455;28;20033;-61
2022/06/08 11:18:44;;;;;;;3.97;3.63;;;;;;;-142.25;100.00;58004.16;5014035;28;20087;-62
2022/06/08 11:21:12;;;;;;;3.83;3.60;;;;;;;-142.25;100.00;58004.16;5012377;28;20490;-62
2022/06/08 11:23:44;;;;;;;3.70;3.40;;;;;;;-142.25;100.00;58004.16;5010087;28;20467;-62
2022/06/08 11:26:23;;;;;;;4.28;3.33;;;;;;;-142.25;100.00;58004.16;5009568;28;20053;-61
2022/06/08 11:29:00;;;;;;;4.05;3.75;;;;;;;-142.25;100.00;58004.16;5013219;28;20144;-61
2022/06/08 11:31:28;;;;;;;3.95;3.65;;;;;;;-142.25;100.00;58004.16;5010220;28;20136;-61
2022/06/08 11:34:18;;;;;;;4.07;3.78;;;;;;;-142.25;100.00;58004.16;5009972;28;20044;-59
2022/06/08 11:37:12;;;;;;;3.92;3.72;;;;;;;-142.25;100.00;58004.16;5014346;28;20077;-70
2022/06/08 11:39:47;;;;;;;5.32;4.18;;;;;;;-142.25;100.00;58004.16;5011678;28;20053;-66
2022/06/08 11:42:29;;;;;;;4.35;4.05;;;;;;;-142.25;100.00;58004.16;5009889;28;20072;-63
2022/06/08 11:45:15;;;;;;;4.70;4.25;;;;;;;-142.25;100.00;58004.16;5009503;28;20136;-63
2022/06/08 11:47:49;;;;;;;4.72;4.38;;;;;;;-142.25;100.00;58004.16;5012377;28;20484;-63
2022/06/08 11:50:37;;;;;;;4.80;4.38;;;;;;;-142.25;100.00;58004.16;5008807;28;20040;-63